MSC Oriane — 3EPY8 — position and weather

sailwx.info

Track history (hours):
 
Tides and Currents Weather Stations Pressure Air Temp Water Temp Dewpoint Dewpoint Depression Visibility Wind Speed Wind Dir Waves Ship Positions

MSC Oriane

Last reported at 2018-Feb-19 19:09 UTC. Time now 2018-Feb-21 00:03 UTC.
Position N 09°36' W 079°56'.

Length 277 m; draft 11.2 m.

Type: Ship (hazmat cat A). MMSI: 353289000.

Date/timePositionNaut miles runAvg speedWind from/ knotsBaromVisibWave heightAir tempDewpointWater temp
2018-Feb-19 19:09N 09°36' W 079°56'420.1
2018-Feb-19 18:58N 09°32' W 079°55'817.2
2018-Feb-19 18:30N 09°24' W 079°55'3 6.1
2018-Feb-19 17:58N 09°21' W 079°55'0 0.0
2018-Feb-19 17:28N 09°21' W 079°55'0 0.0
2018-Feb-19 16:58N 09°21' W 079°55'0 0.0
2018-Feb-19 16:28N 09°21' W 079°55'0 0.0
2018-Feb-19 15:58N 09°21' W 079°55'0 0.0
2018-Feb-19 15:28N 09°21' W 079°55'0 0.0
2018-Feb-19 13:55N 09°21' W 079°55'0 0.0
2018-Feb-19 13:28N 09°21' W 079°55'0 0.0
2018-Feb-19 12:58N 09°21' W 079°55'0 0.0
2018-Feb-19 12:28N 09°21' W 079°55'0 0.0
2018-Feb-19 11:58N 09°21' W 079°55'0 0.0
2018-Feb-19 11:30N 09°21' W 079°55'0 0.0
2018-Feb-19 11:00N 09°21' W 079°55'0 0.0
2018-Feb-19 10:30N 09°21' W 079°55'0 0.0
2018-Feb-19 10:00N 09°21' W 079°55'0 0.0
2018-Feb-19 09:30N 09°21' W 079°55'0 0.0
2018-Feb-19 09:00N 09°21' W 079°55'0 0.0
2018-Feb-19 08:24N 09°21' W 079°55'0 0.0
2018-Feb-19 08:00N 09°21' W 079°55'0 0.0
2018-Feb-19 07:30N 09°21' W 079°55'0 0.0
2018-Feb-19 07:00N 09°21' W 079°55'0 0.0
2018-Feb-19 06:30N 09°21' W 079°55'0 0.0
2018-Feb-19 06:00N 09°21' W 079°55'0 0.0
2018-Feb-19 05:30N 09°21' W 079°55'0 0.0
2018-Feb-19 05:00N 09°21' W 079°55'0 0.0
2018-Feb-19 04:30N 09°21' W 079°55'0 0.0
2018-Feb-19 04:00N 09°21' W 079°55'0 0.0
2018-Feb-19 03:30N 09°21' W 079°55'0 0.0
2018-Feb-19 03:00N 09°21' W 079°55'0 0.0
2018-Feb-19 02:30N 09°21' W 079°55'0 0.0
2018-Feb-19 02:00N 09°21' W 079°55'0 0.0
2018-Feb-19 01:30N 09°21' W 079°55'0 0.0
2018-Feb-19 01:00N 09°21' W 079°55'0 0.0
2018-Feb-19 00:30N 09°21' W 079°55'0 0.0
2018-Feb-19 00:00N 09°21' W 079°55'0 0.0
2018-Feb-18 23:30N 09°21' W 079°55'0 0.0
2018-Feb-18 23:00N 09°21' W 079°55'0 0.0
2018-Feb-18 22:30N 09°21' W 079°55'0 0.0
2018-Feb-18 21:58N 09°21' W 079°55'1 1.4
2018-Feb-18 21:30N 09°21' W 079°55'3 5.8
2018-Feb-18 21:00N 09°24' W 079°55'3 6.1
2018-Feb-18 20:30N 09°27' W 079°56'5 9.0
2018-Feb-18 20:00N 09°29' W 080°00'1 0.9
2018-Feb-18 18:29N 09°29' W 080°01'1 1.3
2018-Feb-18 17:59N 09°30' W 080°01'1 1.4
2018-Feb-18 17:29N 09°30' W 080°00'1 1.4
2018-Feb-18 16:59N 09°31' W 079°60'1 1.4
2018-Feb-18 16:30N 09°31' W 079°59'1 1.4
2018-Feb-18 16:00N 09°32' W 079°59'1 1.4
2018-Feb-18 15:31N 09°32' W 079°58'1 1.4
2018-Feb-18 15:00N 09°33' W 079°58'1 1.3
2018-Feb-18 14:30N 09°33' W 079°57'0 0.8
2018-Feb-18 14:00N 09°33' W 079°57'510.3
2018-Feb-18 13:29N 09°30' W 080°02'1 0.3
2018-Feb-18 09:21N 09°32' W 080°02'1 1.1
2018-Feb-18 08:42N 09°32' W 080°01'1 0.9
2018-Feb-18 08:05N 09°32' W 080°01'1 1.0
2018-Feb-18 07:28N 09°33' W 080°00'1 1.0
2018-Feb-18 06:58N 09°33' W 080°00'1 1.0
2018-Feb-18 06:27N 09°33' W 079°60'1 1.0
2018-Feb-18 05:50N 09°33' W 079°59'2 6.4
2018-Feb-18 05:29N 09°32' W 079°57'3 6.7
2018-Feb-18 05:00N 09°32' W 079°54'24410.5
2018-Feb-17 05:39N 10°17' W 075°50'1811.2
2018-Feb-17 03:59N 10°20' W 075°32'3 5.8
2018-Feb-17 03:29N 10°23' W 075°31'0 0.0
2018-Feb-17 02:06N 10°23' W 075°31'0 0.0
2018-Feb-17 00:24N 10°23' W 075°31'0 0.0
2018-Feb-16 23:54N 10°23' W 075°31'0 0.0
2018-Feb-16 23:24N 10°23' W 075°31'0 0.0
2018-Feb-16 23:00N 10°23' W 075°31'0 0.0
2018-Feb-16 22:30N 10°23' W 075°31'0 0.0
2018-Feb-16 22:00N 10°23' W 075°31'0 0.0
2018-Feb-16 21:27N 10°23' W 075°31'0 0.0
2018-Feb-16 14:39N 10°23' W 075°31'7 3.5
2018-Feb-16 12:45N 10°21' W 075°37'413.4
2018-Feb-16 12:29N 10°25' W 075°37'714.7
2018-Feb-16 12:00N 10°32' W 075°37'714.4
2018-Feb-16 11:30N 10°39' W 075°36'16014.5
2018-Feb-16 00:28N 12°02' W 073°16'  
Track history (hours):
 
Tides and Currents Weather Stations Pressure Air Temp Water Temp Dewpoint Dewpoint Depression Visibility Wind Speed Wind Dir Waves Ship Positions

MSC Oriane

Last reported at 2018-Feb-19 19:09 UTC. Time now 2018-Feb-21 00:03 UTC.
Position N 09°36' W 079°56'.

Length 277 m; draft 11.2 m.

Type: Ship (hazmat cat A). MMSI: 353289000.

Date/timePositionNaut miles runAvg speedWind from/ knotsBaromVisibWave heightAir tempDewpointWater temp
2018-Feb-19 19:09N 09°36' W 079°56'420.1
2018-Feb-19 18:58N 09°32' W 079°55'817.2
2018-Feb-19 18:30N 09°24' W 079°55'3 6.1
2018-Feb-19 17:58N 09°21' W 079°55'0 0.0
2018-Feb-19 17:28N 09°21' W 079°55'0 0.0
2018-Feb-19 16:58N 09°21' W 079°55'0 0.0
2018-Feb-19 16:28N 09°21' W 079°55'0 0.0
2018-Feb-19 15:58N 09°21' W 079°55'0 0.0
2018-Feb-19 15:28N 09°21' W 079°55'0 0.0
2018-Feb-19 13:55N 09°21' W 079°55'0 0.0
2018-Feb-19 13:28N 09°21' W 079°55'0 0.0
2018-Feb-19 12:58N 09°21' W 079°55'0 0.0
2018-Feb-19 12:28N 09°21' W 079°55'0 0.0
2018-Feb-19 11:58N 09°21' W 079°55'0 0.0
2018-Feb-19 11:30N 09°21' W 079°55'0 0.0
2018-Feb-19 11:00N 09°21' W 079°55'0 0.0
2018-Feb-19 10:30N 09°21' W 079°55'0 0.0
2018-Feb-19 10:00N 09°21' W 079°55'0 0.0
2018-Feb-19 09:30N 09°21' W 079°55'0 0.0
2018-Feb-19 09:00N 09°21' W 079°55'0 0.0
2018-Feb-19 08:24N 09°21' W 079°55'0 0.0
2018-Feb-19 08:00N 09°21' W 079°55'0 0.0
2018-Feb-19 07:30N 09°21' W 079°55'0 0.0
2018-Feb-19 07:00N 09°21' W 079°55'0 0.0
2018-Feb-19 06:30N 09°21' W 079°55'0 0.0
2018-Feb-19 06:00N 09°21' W 079°55'0 0.0
2018-Feb-19 05:30N 09°21' W 079°55'0 0.0
2018-Feb-19 05:00N 09°21' W 079°55'0 0.0
2018-Feb-19 04:30N 09°21' W 079°55'0 0.0
2018-Feb-19 04:00N 09°21' W 079°55'0 0.0
2018-Feb-19 03:30N 09°21' W 079°55'0 0.0
2018-Feb-19 03:00N 09°21' W 079°55'0 0.0
2018-Feb-19 02:30N 09°21' W 079°55'0 0.0
2018-Feb-19 02:00N 09°21' W 079°55'0 0.0
2018-Feb-19 01:30N 09°21' W 079°55'0 0.0
2018-Feb-19 01:00N 09°21' W 079°55'0 0.0
2018-Feb-19 00:30N 09°21' W 079°55'0 0.0
2018-Feb-19 00:00N 09°21' W 079°55'0 0.0
2018-Feb-18 23:30N 09°21' W 079°55'0 0.0
2018-Feb-18 23:00N 09°21' W 079°55'0 0.0
2018-Feb-18 22:30N 09°21' W 079°55'0 0.0
2018-Feb-18 21:58N 09°21' W 079°55'1 1.4
2018-Feb-18 21:30N 09°21' W 079°55'3 5.8
2018-Feb-18 21:00N 09°24' W 079°55'3 6.1
2018-Feb-18 20:30N 09°27' W 079°56'5 9.0
2018-Feb-18 20:00N 09°29' W 080°00'1 0.9
2018-Feb-18 18:29N 09°29' W 080°01'1 1.3
2018-Feb-18 17:59N 09°30' W 080°01'1 1.4
2018-Feb-18 17:29N 09°30' W 080°00'1 1.4
2018-Feb-18 16:59N 09°31' W 079°60'1 1.4
2018-Feb-18 16:30N 09°31' W 079°59'1 1.4
2018-Feb-18 16:00N 09°32' W 079°59'1 1.4
2018-Feb-18 15:31N 09°32' W 079°58'1 1.4
2018-Feb-18 15:00N 09°33' W 079°58'1 1.3
2018-Feb-18 14:30N 09°33' W 079°57'0 0.8
2018-Feb-18 14:00N 09°33' W 079°57'510.3
2018-Feb-18 13:29N 09°30' W 080°02'1 0.3
2018-Feb-18 09:21N 09°32' W 080°02'1 1.1
2018-Feb-18 08:42N 09°32' W 080°01'1 0.9
2018-Feb-18 08:05N 09°32' W 080°01'1 1.0
2018-Feb-18 07:28N 09°33' W 080°00'1 1.0
2018-Feb-18 06:58N 09°33' W 080°00'1 1.0
2018-Feb-18 06:27N 09°33' W 079°60'1 1.0
2018-Feb-18 05:50N 09°33' W 079°59'2 6.4
2018-Feb-18 05:29N 09°32' W 079°57'3 6.7
2018-Feb-18 05:00N 09°32' W 079°54'24410.5
2018-Feb-17 05:39N 10°17' W 075°50'1811.2
2018-Feb-17 03:59N 10°20' W 075°32'3 5.8
2018-Feb-17 03:29N 10°23' W 075°31'0 0.0
2018-Feb-17 02:06N 10°23' W 075°31'0 0.0
2018-Feb-17 00:24N 10°23' W 075°31'0 0.0
2018-Feb-16 23:54N 10°23' W 075°31'0 0.0
2018-Feb-16 23:24N 10°23' W 075°31'0 0.0
2018-Feb-16 23:00N 10°23' W 075°31'0 0.0
2018-Feb-16 22:30N 10°23' W 075°31'0 0.0
2018-Feb-16 22:00N 10°23' W 075°31'0 0.0
2018-Feb-16 21:27N 10°23' W 075°31'0 0.0
2018-Feb-16 14:39N 10°23' W 075°31'7 3.5
2018-Feb-16 12:45N 10°21' W 075°37'413.4
2018-Feb-16 12:29N 10°25' W 075°37'714.7
2018-Feb-16 12:00N 10°32' W 075°37'714.4
2018-Feb-16 11:30N 10°39' W 075°36'16014.5
2018-Feb-16 00:28N 12°02' W 073°16'  

Dump ship's entire track history